sensor_id;sensor_type;location;lat;lon;timestamp;temperature;humidity
49765;DHT22;35657;51.204;-4.130;2022-12-07T00:01:38;6.80;99.90
49765;DHT22;35657;51.204;-4.130;2022-12-07T00:04:05;6.90;99.90
49765;DHT22;35657;51.204;-4.130;2022-12-07T00:06:37;6.90;99.90
49765;DHT22;35657;51.204;-4.130;2022-12-07T00:09:04;6.90;99.90
49765;DHT22;35657;51.204;-4.130;2022-12-07T00:11:30;6.80;99.90
49765;DHT22;35657;51.204;-4.130;2022-12-07T00:13:59;6.80;99.90
49765;DHT22;35657;51.204;-4.130;2022-12-07T00:16:28;6.90;99.90
49765;DHT22;35657;51.204;-4.130;2022-12-07T00:18:54;6.90;99.90
49765;DHT22;35657;51.204;-4.130;2022-12-07T00:21:26;6.80;99.90
49765;DHT22;35657;51.204;-4.130;2022-12-07T00:23:53;6.90;99.90
49765;DHT22;35657;51.204;-4.130;2022-12-07T00:26:28;6.90;99.90
49765;DHT22;35657;51.204;-4.130;2022-12-07T00:29:00;6.90;99.90
49765;DHT22;35657;51.204;-4.130;2022-12-07T00:31:28;6.90;99.90
49765;DHT22;35657;51.204;-4.130;2022-12-07T00:33:55;6.90;99.90
49765;DHT22;35657;51.204;-4.130;2022-12-07T00:36:23;6.90;99.90
49765;DHT22;35657;51.204;-4.130;2022-12-07T00:38:49;6.90;99.90
49765;DHT22;35657;51.204;-4.130;2022-12-07T00:41:20;6.90;99.90
49765;DHT22;35657;51.204;-4.130;2022-12-07T00:43:47;6.90;99.90
49765;DHT22;35657;51.204;-4.130;2022-12-07T00:46:14;7.00;99.90
49765;DHT22;35657;51.204;-4.130;2022-12-07T00:48:40;7.10;99.90
49765;DHT22;35657;51.204;-4.130;2022-12-07T00:51:07;7.00;99.90
49765;DHT22;35657;51.204;-4.130;2022-12-07T00:53:36;7.10;99.90
49765;DHT22;35657;51.204;-4.130;2022-12-07T00:56:17;7.10;99.90
49765;DHT22;35657;51.204;-4.130;2022-12-07T00:58:43;7.10;99.90
49765;DHT22;35657;51.204;-4.130;2022-12-07T01:01:10;7.20;99.90
49765;DHT22;35657;51.204;-4.130;2022-12-07T01:03:36;7.20;99.90
49765;DHT22;35657;51.204;-4.130;2022-12-07T01:06:03;7.20;99.90
49765;DHT22;35657;51.204;-4.130;2022-12-07T01:08:30;7.20;99.90
49765;DHT22;35657;51.204;-4.130;2022-12-07T01:11:05;7.20;99.90
49765;DHT22;35657;51.204;-4.130;2022-12-07T01:13:32;7.20;99.90
49765;DHT22;35657;51.204;-4.130;2022-12-07T01:16:00;7.30;99.90
49765;DHT22;35657;51.204;-4.130;2022-12-07T01:18:30;7.30;99.90
49765;DHT22;35657;51.204;-4.130;2022-12-07T01:23:27;7.40;99.90
49765;DHT22;35657;51.204;-4.130;2022-12-07T01:25:55;7.40;99.90
49765;DHT22;35657;51.204;-4.130;2022-12-07T01:28:20;7.30;99.90
49765;DHT22;35657;51.204;-4.130;2022-12-07T01:30:58;7.30;99.90
49765;DHT22;35657;51.204;-4.130;2022-12-07T01:33:23;7.30;99.90
49765;DHT22;35657;51.204;-4.130;2022-12-07T01:35:49;7.30;99.90
49765;DHT22;35657;51.204;-4.130;2022-12-07T01:38:15;7.30;99.90
49765;DHT22;35657;51.204;-4.130;2022-12-07T01:40:40;7.30;99.90
49765;DHT22;35657;51.204;-4.130;2022-12-07T01:43:17;7.30;99.90
49765;DHT22;35657;51.204;-4.130;2022-12-07T01:45:44;7.30;99.90
49765;DHT22;35657;51.204;-4.130;2022-12-07T01:48:12;7.30;99.90
49765;DHT22;35657;51.204;-4.130;2022-12-07T01:50:41;7.20;99.90
49765;DHT22;35657;51.204;-4.130;2022-12-07T01:53:09;7.20;99.90
49765;DHT22;35657;51.204;-4.130;2022-12-07T01:55:38;7.20;99.90
49765;DHT22;35657;51.204;-4.130;2022-12-07T01:58:05;7.20;99.90
49765;DHT22;35657;51.204;-4.130;2022-12-07T02:00:31;7.20;99.90
49765;DHT22;35657;51.204;-4.130;2022-12-07T02:03:03;7.20;99.90
49765;DHT22;35657;51.204;-4.130;2022-12-07T02:05:30;7.20;99.90
49765;DHT22;35657;51.204;-4.130;2022-12-07T02:07:57;7.20;99.90
49765;DHT22;35657;51.204;-4.130;2022-12-07T02:10:29;7.20;99.90
49765;DHT22;35657;51.204;-4.130;2022-12-07T02:13:03;7.20;99.90
49765;DHT22;35657;51.204;-4.130;2022-12-07T02:18:25;7.30;99.90
49765;DHT22;35657;51.204;-4.130;2022-12-07T02:29:22;7.20;99.90
49765;DHT22;35657;51.204;-4.130;2022-12-07T02:32:01;7.10;99.90
49765;DHT22;35657;51.204;-4.130;2022-12-07T02:37:21;7.20;99.90
49765;DHT22;35657;51.204;-4.130;2022-12-07T02:40:18;7.20;99.90
49765;DHT22;35657;51.204;-4.130;2022-12-07T02:43:12;7.20;99.90
49765;DHT22;35657;51.204;-4.130;2022-12-07T02:45:41;7.30;99.90
49765;DHT22;35657;51.204;-4.130;2022-12-07T02:48:10;7.30;99.90
49765;DHT22;35657;51.204;-4.130;2022-12-07T02:50:37;7.30;99.90
49765;DHT22;35657;51.204;-4.130;2022-12-07T02:53:03;7.30;99.90
49765;DHT22;35657;51.204;-4.130;2022-12-07T02:55:34;7.30;99.90
49765;DHT22;35657;51.204;-4.130;2022-12-07T03:03:48;7.30;99.90
49765;DHT22;35657;51.204;-4.130;2022-12-07T03:06:24;7.30;99.90
49765;DHT22;35657;51.204;-4.130;2022-12-07T03:11:50;7.40;99.90
49765;DHT22;35657;51.204;-4.130;2022-12-07T03:14:30;7.40;99.90
49765;DHT22;35657;51.204;-4.130;2022-12-07T03:17:03;7.40;99.90
49765;DHT22;35657;51.204;-4.130;2022-12-07T03:19:31;7.40;99.90
49765;DHT22;35657;51.204;-4.130;2022-12-07T03:22:05;7.40;99.90
49765;DHT22;35657;51.204;-4.130;2022-12-07T03:24:43;7.40;99.90
49765;DHT22;35657;51.204;-4.130;2022-12-07T03:29:55;7.30;99.90
49765;DHT22;35657;51.204;-4.130;2022-12-07T03:32:31;7.20;99.90
49765;DHT22;35657;51.204;-4.130;2022-12-07T03:35:51;7.20;99.90
49765;DHT22;35657;51.204;-4.130;2022-12-07T03:38:00;7.10;99.90
49765;DHT22;35657;51.204;-4.130;2022-12-07T03:43:09;7.10;99.90
49765;DHT22;35657;51.204;-4.130;2022-12-07T03:45:38;7.00;99.90
49765;DHT22;35657;51.204;-4.130;2022-12-07T03:48:33;7.10;99.90
49765;DHT22;35657;51.204;-4.130;2022-12-07T03:51:13;7.00;99.90
49765;DHT22;35657;51.204;-4.130;2022-12-07T03:54:36;7.00;99.90
49765;DHT22;35657;51.204;-4.130;2022-12-07T03:56:45;7.00;99.90
49765;DHT22;35657;51.204;-4.130;2022-12-07T03:59:13;7.00;99.90
49765;DHT22;35657;51.204;-4.130;2022-12-07T04:01:42;7.00;99.90
49765;DHT22;35657;51.204;-4.130;2022-12-07T04:04:08;7.00;99.90
49765;DHT22;35657;51.204;-4.130;2022-12-07T04:06:34;6.90;99.90
49765;DHT22;35657;51.204;-4.130;2022-12-07T04:08:59;6.90;99.90
49765;DHT22;35657;51.204;-4.130;2022-12-07T04:11:25;6.90;99.90
49765;DHT22;35657;51.204;-4.130;2022-12-07T04:13:51;6.90;99.90
49765;DHT22;35657;51.204;-4.130;2022-12-07T04:16:35;6.90;99.90
49765;DHT22;35657;51.204;-4.130;2022-12-07T04:19:00;6.90;99.90
49765;DHT22;35657;51.204;-4.130;2022-12-07T04:21:26;6.90;99.90
49765;DHT22;35657;51.204;-4.130;2022-12-07T04:23:52;7.00;99.90
49765;DHT22;35657;51.204;-4.130;2022-12-07T04:26:17;7.00;99.90
49765;DHT22;35657;51.204;-4.130;2022-12-07T04:28:43;7.10;99.90
49765;DHT22;35657;51.204;-4.130;2022-12-07T04:31:09;7.00;99.90
49765;DHT22;35657;51.204;-4.130;2022-12-07T04:33:35;6.90;99.90
49765;DHT22;35657;51.204;-4.130;2022-12-07T04:36:01;7.00;99.90
49765;DHT22;35657;51.204;-4.130;2022-12-07T04:38:26;7.10;99.90
49765;DHT22;35657;51.204;-4.130;2022-12-07T04:40:52;7.10;99.90
49765;DHT22;35657;51.204;-4.130;2022-12-07T04:43:18;7.10;99.90
49765;DHT22;35657;51.204;-4.130;2022-12-07T04:45:47;7.10;99.90
49765;DHT22;35657;51.204;-4.130;2022-12-07T04:48:14;7.10;99.90
49765;DHT22;35657;51.204;-4.130;2022-12-07T04:50:39;7.10;99.90
49765;DHT22;35657;51.204;-4.130;2022-12-07T04:53:05;7.10;99.90
49765;DHT22;35657;51.204;-4.130;2022-12-07T04:55:31;7.10;99.90
49765;DHT22;35657;51.204;-4.130;2022-12-07T04:57:57;7.10;99.90
49765;DHT22;35657;51.204;-4.130;2022-12-07T05:00:22;7.00;99.90
49765;DHT22;35657;51.204;-4.130;2022-12-07T05:02:48;7.00;99.90
49765;DHT22;35657;51.204;-4.130;2022-12-07T05:05:14;7.00;99.90
49765;DHT22;35657;51.204;-4.130;2022-12-07T05:07:39;7.00;99.90
49765;DHT22;35657;51.204;-4.130;2022-12-07T05:10:06;7.00;99.90
49765;DHT22;35657;51.204;-4.130;2022-12-07T05:12:32;7.00;99.90
49765;DHT22;35657;51.204;-4.130;2022-12-07T05:14:57;7.00;99.90
49765;DHT22;35657;51.204;-4.130;2022-12-07T05:17:23;7.00;99.90
49765;DHT22;35657;51.204;-4.130;2022-12-07T05:19:49;7.10;99.90
49765;DHT22;35657;51.204;-4.130;2022-12-07T05:22:14;7.00;99.90
49765;DHT22;35657;51.204;-4.130;2022-12-07T05:24:40;7.00;99.90
49765;DHT22;35657;51.204;-4.130;2022-12-07T05:27:06;7.00;99.90
49765;DHT22;35657;51.204;-4.130;2022-12-07T05:29:32;7.00;99.90
49765;DHT22;35657;51.204;-4.130;2022-12-07T05:31:57;7.00;99.90
49765;DHT22;35657;51.204;-4.130;2022-12-07T05:34:23;7.00;99.90
49765;DHT22;35657;51.204;-4.130;2022-12-07T05:36:49;7.00;99.90
49765;DHT22;35657;51.204;-4.130;2022-12-07T05:39:15;7.00;99.90
49765;DHT22;35657;51.204;-4.130;2022-12-07T05:41:41;7.10;99.90
49765;DHT22;35657;51.204;-4.130;2022-12-07T05:44:26;7.10;99.90
49765;DHT22;35657;51.204;-4.130;2022-12-07T05:46:51;7.00;99.90
49765;DHT22;35657;51.204;-4.130;2022-12-07T05:49:17;7.10;99.90
49765;DHT22;35657;51.204;-4.130;2022-12-07T05:51:43;7.10;99.90
49765;DHT22;35657;51.204;-4.130;2022-12-07T05:54:08;7.30;99.90
49765;DHT22;35657;51.204;-4.130;2022-12-07T05:56:34;7.30;99.90
49765;DHT22;35657;51.204;-4.130;2022-12-07T05:59:00;7.30;99.90
49765;DHT22;35657;51.204;-4.130;2022-12-07T06:01:44;7.30;99.90
49765;DHT22;35657;51.204;-4.130;2022-12-07T06:04:10;7.30;99.90
49765;DHT22;35657;51.204;-4.130;2022-12-07T06:06:36;7.30;99.90
49765;DHT22;35657;51.204;-4.130;2022-12-07T06:09:03;7.40;99.90
49765;DHT22;35657;51.204;-4.130;2022-12-07T06:11:28;7.40;99.90
49765;DHT22;35657;51.204;-4.130;2022-12-07T06:14:12;7.50;99.90
49765;DHT22;35657;51.204;-4.130;2022-12-07T06:16:38;7.50;99.90
49765;DHT22;35657;51.204;-4.130;2022-12-07T06:19:04;7.40;99.90
49765;DHT22;35657;51.204;-4.130;2022-12-07T06:21:30;7.40;99.90
49765;DHT22;35657;51.204;-4.130;2022-12-07T06:23:56;7.40;99.90
49765;DHT22;35657;51.204;-4.130;2022-12-07T06:26:22;7.40;99.90
49765;DHT22;35657;51.204;-4.130;2022-12-07T06:28:48;7.30;99.90
49765;DHT22;35657;51.204;-4.130;2022-12-07T06:31:13;7.30;99.90
49765;DHT22;35657;51.204;-4.130;2022-12-07T06:33:40;7.30;99.90
49765;DHT22;35657;51.204;-4.130;2022-12-07T06:36:07;7.30;99.90
49765;DHT22;35657;51.204;-4.130;2022-12-07T06:38:33;7.30;99.90
49765;DHT22;35657;51.204;-4.130;2022-12-07T06:40:58;7.30;99.90
49765;DHT22;35657;51.204;-4.130;2022-12-07T06:43:24;7.20;99.90
49765;DHT22;35657;51.204;-4.130;2022-12-07T06:45:50;7.30;99.90
49765;DHT22;35657;51.204;-4.130;2022-12-07T06:48:16;7.20;99.90
49765;DHT22;35657;51.204;-4.130;2022-12-07T06:50:44;7.10;99.90
49765;DHT22;35657;51.204;-4.130;2022-12-07T06:53:10;7.20;99.90
49765;DHT22;35657;51.204;-4.130;2022-12-07T06:55:36;7.30;99.90
49765;DHT22;35657;51.204;-4.130;2022-12-07T06:58:01;7.30;99.90
49765;DHT22;35657;51.204;-4.130;2022-12-07T07:00:28;7.20;99.90
49765;DHT22;35657;51.204;-4.130;2022-12-07T07:02:54;7.20;99.90
49765;DHT22;35657;51.204;-4.130;2022-12-07T07:05:20;7.20;99.90
49765;DHT22;35657;51.204;-4.130;2022-12-07T07:07:49;7.20;99.90
49765;DHT22;35657;51.204;-4.130;2022-12-07T07:10:15;7.10;99.90
49765;DHT22;35657;51.204;-4.130;2022-12-07T07:12:41;7.30;99.90
49765;DHT22;35657;51.204;-4.130;2022-12-07T07:15:07;7.40;99.90
49765;DHT22;35657;51.204;-4.130;2022-12-07T07:17:32;7.40;99.90
49765;DHT22;35657;51.204;-4.130;2022-12-07T07:19:58;7.30;99.90
49765;DHT22;35657;51.204;-4.130;2022-12-07T07:22:24;7.30;99.90
49765;DHT22;35657;51.204;-4.130;2022-12-07T07:24:50;7.30;99.90
49765;DHT22;35657;51.204;-4.130;2022-12-07T07:27:15;7.30;99.90
49765;DHT22;35657;51.204;-4.130;2022-12-07T07:29:41;7.30;99.90
49765;DHT22;35657;51.204;-4.130;2022-12-07T07:32:07;7.30;99.90
49765;DHT22;35657;51.204;-4.130;2022-12-07T07:34:33;7.30;99.90
49765;DHT22;35657;51.204;-4.130;2022-12-07T07:36:59;7.30;99.90
49765;DHT22;35657;51.204;-4.130;2022-12-07T07:39:25;7.30;99.90
49765;DHT22;35657;51.204;-4.130;2022-12-07T07:41:51;7.30;99.90
49765;DHT22;35657;51.204;-4.130;2022-12-07T07:44:17;7.20;99.90
49765;DHT22;35657;51.204;-4.130;2022-12-07T07:46:42;7.20;99.90
49765;DHT22;35657;51.204;-4.130;2022-12-07T07:49:09;7.20;99.90
49765;DHT22;35657;51.204;-4.130;2022-12-07T07:51:36;7.20;99.90
49765;DHT22;35657;51.204;-4.130;2022-12-07T07:54:02;7.20;99.90
49765;DHT22;35657;51.204;-4.130;2022-12-07T07:56:28;7.20;99.90
49765;DHT22;35657;51.204;-4.130;2022-12-07T07:58:54;7.10;99.90
49765;DHT22;35657;51.204;-4.130;2022-12-07T08:01:20;7.10;99.90
49765;DHT22;35657;51.204;-4.130;2022-12-07T08:03:48;7.20;99.90
49765;DHT22;35657;51.204;-4.130;2022-12-07T08:06:14;7.30;99.90
49765;DHT22;35657;51.204;-4.130;2022-12-07T08:08:40;7.30;99.90
49765;DHT22;35657;51.204;-4.130;2022-12-07T08:11:08;7.40;99.90
49765;DHT22;35657;51.204;-4.130;2022-12-07T08:13:34;7.40;99.90
49765;DHT22;35657;51.204;-4.130;2022-12-07T08:16:05;7.30;99.90
49765;DHT22;35657;51.204;-4.130;2022-12-07T08:18:31;7.20;99.90
49765;DHT22;35657;51.204;-4.130;2022-12-07T08:21:00;7.20;99.90
49765;DHT22;35657;51.204;-4.130;2022-12-07T08:23:29;7.10;99.90
49765;DHT22;35657;51.204;-4.130;2022-12-07T08:25:55;7.10;99.90
49765;DHT22;35657;51.204;-4.130;2022-12-07T08:28:25;7.10;99.90
49765;DHT22;35657;51.204;-4.130;2022-12-07T08:30:50;7.10;99.90
49765;DHT22;35657;51.204;-4.130;2022-12-07T08:33:16;7.10;99.90
49765;DHT22;35657;51.204;-4.130;2022-12-07T08:35:42;7.10;99.90
49765;DHT22;35657;51.204;-4.130;2022-12-07T08:38:07;7.10;99.90
49765;DHT22;35657;51.204;-4.130;2022-12-07T08:40:33;7.10;99.90
49765;DHT22;35657;51.204;-4.130;2022-12-07T08:42:59;7.10;99.90
49765;DHT22;35657;51.204;-4.130;2022-12-07T08:45:25;7.10;99.90
49765;DHT22;35657;51.204;-4.130;2022-12-07T08:50:19;7.10;99.90
49765;DHT22;35657;51.204;-4.130;2022-12-07T08:52:49;7.00;99.90
49765;DHT22;35657;51.204;-4.130;2022-12-07T08:55:17;7.00;99.90
49765;DHT22;35657;51.204;-4.130;2022-12-07T08:57:43;7.00;99.90
49765;DHT22;35657;51.204;-4.130;2022-12-07T09:00:09;7.00;99.90
49765;DHT22;35657;51.204;-4.130;2022-12-07T09:02:36;7.00;99.90
49765;DHT22;35657;51.204;-4.130;2022-12-07T09:05:02;7.00;99.90
49765;DHT22;35657;51.204;-4.130;2022-12-07T09:07:30;7.00;99.90
49765;DHT22;35657;51.204;-4.130;2022-12-07T09:09:57;7.00;99.90
49765;DHT22;35657;51.204;-4.130;2022-12-07T09:12:23;7.00;99.90
49765;DHT22;35657;51.204;-4.130;2022-12-07T09:14:49;7.00;99.90
49765;DHT22;35657;51.204;-4.130;2022-12-07T09:17:14;7.10;99.90
49765;DHT22;35657;51.204;-4.130;2022-12-07T09:19:40;7.10;99.90
49765;DHT22;35657;51.204;-4.130;2022-12-07T09:22:08;7.10;99.90
49765;DHT22;35657;51.204;-4.130;2022-12-07T09:24:34;7.00;99.90
49765;DHT22;35657;51.204;-4.130;2022-12-07T09:27:00;7.00;99.90
49765;DHT22;35657;51.204;-4.130;2022-12-07T09:29:26;7.00;99.90
49765;DHT22;35657;51.204;-4.130;2022-12-07T09:31:52;6.90;99.90
49765;DHT22;35657;51.204;-4.130;2022-12-07T09:34:18;7.00;99.90
49765;DHT22;35657;51.204;-4.130;2022-12-07T09:36:44;7.00;99.90
49765;DHT22;35657;51.204;-4.130;2022-12-07T09:39:10;6.90;99.90
49765;DHT22;35657;51.204;-4.130;2022-12-07T09:41:41;6.80;99.90
49765;DHT22;35657;51.204;-4.130;2022-12-07T09:44:13;6.90;99.90
49765;DHT22;35657;51.204;-4.130;2022-12-07T09:46:41;6.90;99.90
49765;DHT22;35657;51.204;-4.130;2022-12-07T09:49:22;6.90;99.90
49765;DHT22;35657;51.204;-4.130;2022-12-07T09:54:29;6.90;99.90
49765;DHT22;35657;51.204;-4.130;2022-12-07T09:56:55;6.90;99.90
49765;DHT22;35657;51.204;-4.130;2022-12-07T09:59:20;7.00;99.90
49765;DHT22;35657;51.204;-4.130;2022-12-07T10:01:48;7.00;99.90
49765;DHT22;35657;51.204;-4.130;2022-12-07T10:04:20;7.00;99.90
49765;DHT22;35657;51.204;-4.130;2022-12-07T10:06:47;7.00;99.90
49765;DHT22;35657;51.204;-4.130;2022-12-07T10:09:16;7.00;99.90
49765;DHT22;35657;51.204;-4.130;2022-12-07T10:14:31;7.10;99.90
49765;DHT22;35657;51.204;-4.130;2022-12-07T10:16:57;7.10;99.90
49765;DHT22;35657;51.204;-4.130;2022-12-07T10:19:32;7.10;99.90
49765;DHT22;35657;51.204;-4.130;2022-12-07T10:22:01;7.10;99.90
49765;DHT22;35657;51.204;-4.130;2022-12-07T10:24:27;7.20;99.90
49765;DHT22;35657;51.204;-4.130;2022-12-07T10:26:53;7.20;99.90
49765;DHT22;35657;51.204;-4.130;2022-12-07T10:29:33;7.30;99.90
49765;DHT22;35657;51.204;-4.130;2022-12-07T10:32:21;7.30;99.90
49765;DHT22;35657;51.204;-4.130;2022-12-07T10:34:52;7.40;99.90
49765;DHT22;35657;51.204;-4.130;2022-12-07T10:37:40;7.40;99.90
49765;DHT22;35657;51.204;-4.130;2022-12-07T10:40:30;7.40;99.90
49765;DHT22;35657;51.204;-4.130;2022-12-07T10:48:46;7.40;99.90
49765;DHT22;35657;51.204;-4.130;2022-12-07T10:54:30;7.50;99.90
49765;DHT22;35657;51.204;-4.130;2022-12-07T10:57:22;7.50;99.90
49765;DHT22;35657;51.204;-4.130;2022-12-07T11:00:13;7.50;99.90
49765;DHT22;35657;51.204;-4.130;2022-12-07T11:05:30;7.60;99.90
49765;DHT22;35657;51.204;-4.130;2022-12-07T11:10:37;7.50;99.90
49765;DHT22;35657;51.204;-4.130;2022-12-07T11:13:47;7.40;99.90
49765;DHT22;35657;51.204;-4.130;2022-12-07T11:24:06;7.40;99.90
49765;DHT22;35657;51.204;-4.130;2022-12-07T11:29:39;7.60;99.90
49765;DHT22;35657;51.204;-4.130;2022-12-07T11:37:38;7.80;99.90
49765;DHT22;35657;51.204;-4.130;2022-12-07T11:40:21;7.80;99.90
49765;DHT22;35657;51.204;-4.130;2022-12-07T11:42:55;7.80;99.90
49765;DHT22;35657;51.204;-4.130;2022-12-07T11:45:33;7.80;99.90
49765;DHT22;35657;51.204;-4.130;2022-12-07T11:48:14;7.90;99.90
49765;DHT22;35657;51.204;-4.130;2022-12-07T11:50:48;7.90;99.90
49765;DHT22;35657;51.204;-4.130;2022-12-07T11:53:18;7.80;99.90
49765;DHT22;35657;51.204;-4.130;2022-12-07T11:56:17;7.90;99.90
49765;DHT22;35657;51.204;-4.130;2022-12-07T12:05:13;8.20;99.90
49765;DHT22;35657;51.204;-4.130;2022-12-07T12:07:42;8.10;99.90
49765;DHT22;35657;51.204;-4.130;2022-12-07T12:10:36;8.20;99.90
49765;DHT22;35657;51.204;-4.130;2022-12-07T12:21:15;8.20;99.90
49765;DHT22;35657;51.204;-4.130;2022-12-07T12:26:25;8.10;99.90
49765;DHT22;35657;51.204;-4.130;2022-12-07T12:29:25;8.00;99.90
49765;DHT22;35657;51.204;-4.130;2022-12-07T12:32:17;8.00;99.90
49765;DHT22;35657;51.204;-4.130;2022-12-07T12:42:51;7.80;99.90
49765;DHT22;35657;51.204;-4.130;2022-12-07T12:45:28;7.80;99.90
49765;DHT22;35657;51.204;-4.130;2022-12-07T12:48:04;7.70;99.90
49765;DHT22;35657;51.204;-4.130;2022-12-07T12:50:35;7.70;99.90
49765;DHT22;35657;51.204;-4.130;2022-12-07T12:53:22;7.60;99.90
49765;DHT22;35657;51.204;-4.130;2022-12-07T12:58:38;7.80;99.90
49765;DHT22;35657;51.204;-4.130;2022-12-07T13:04:00;7.70;99.90
49765;DHT22;35657;51.204;-4.130;2022-12-07T13:08:55;7.80;99.90
49765;DHT22;35657;51.204;-4.130;2022-12-07T13:11:35;7.80;99.90
49765;DHT22;35657;51.204;-4.130;2022-12-07T13:17:03;7.80;99.90
49765;DHT22;35657;51.204;-4.130;2022-12-07T13:28:13;7.80;99.90
49765;DHT22;35657;51.204;-4.130;2022-12-07T13:33:30;8.00;99.90
49765;DHT22;35657;51.204;-4.130;2022-12-07T13:35:59;7.90;99.90
49765;DHT22;35657;51.204;-4.130;2022-12-07T13:38:29;7.80;99.90
49765;DHT22;35657;51.204;-4.130;2022-12-07T13:43:27;7.80;99.90
49765;DHT22;35657;51.204;-4.130;2022-12-07T13:45:57;7.80;99.90
49765;DHT22;35657;51.204;-4.130;2022-12-07T13:48:46;7.90;99.90
49765;DHT22;35657;51.204;-4.130;2022-12-07T13:51:39;8.00;99.90
49765;DHT22;35657;51.204;-4.130;2022-12-07T13:54:12;7.90;99.90
49765;DHT22;35657;51.204;-4.130;2022-12-07T13:56:39;7.90;99.90
49765;DHT22;35657;51.204;-4.130;2022-12-07T13:59:15;7.90;99.90
49765;DHT22;35657;51.204;-4.130;2022-12-07T14:01:42;8.00;99.90
49765;DHT22;35657;51.204;-4.130;2022-12-07T14:04:29;7.90;99.90
49765;DHT22;35657;51.204;-4.130;2022-12-07T14:06:56;7.90;99.90
49765;DHT22;35657;51.204;-4.130;2022-12-07T14:09:26;7.90;99.90
49765;DHT22;35657;51.204;-4.130;2022-12-07T14:11:53;7.90;99.90
49765;DHT22;35657;51.204;-4.130;2022-12-07T14:14:25;7.90;99.90
49765;DHT22;35657;51.204;-4.130;2022-12-07T14:17:01;7.80;99.90
49765;DHT22;35657;51.204;-4.130;2022-12-07T14:19:48;7.80;99.90
49765;DHT22;35657;51.204;-4.130;2022-12-07T14:22:34;7.70;99.90
49765;DHT22;35657;51.204;-4.130;2022-12-07T14:25:21;7.80;99.90
49765;DHT22;35657;51.204;-4.130;2022-12-07T14:30:17;7.80;99.90
49765;DHT22;35657;51.204;-4.130;2022-12-07T14:32:43;7.70;99.90
49765;DHT22;35657;51.204;-4.130;2022-12-07T14:35:15;7.70;99.90
49765;DHT22;35657;51.204;-4.130;2022-12-07T14:37:43;7.80;99.90
49765;DHT22;35657;51.204;-4.130;2022-12-07T14:40:14;7.80;99.90
49765;DHT22;35657;51.204;-4.130;2022-12-07T14:42:40;7.90;99.90
49765;DHT22;35657;51.204;-4.130;2022-12-07T14:45:17;7.80;99.90
49765;DHT22;35657;51.204;-4.130;2022-12-07T14:47:44;7.70;99.90
49765;DHT22;35657;51.204;-4.130;2022-12-07T14:50:15;7.70;99.90
49765;DHT22;35657;51.204;-4.130;2022-12-07T14:52:43;7.70;99.90
49765;DHT22;35657;51.204;-4.130;2022-12-07T14:55:28;7.70;99.90
49765;DHT22;35657;51.204;-4.130;2022-12-07T14:57:55;7.60;99.90
49765;DHT22;35657;51.204;-4.130;2022-12-07T15:00:26;7.70;99.90
49765;DHT22;35657;51.204;-4.130;2022-12-07T15:02:52;7.60;99.90
49765;DHT22;35657;51.204;-4.130;2022-12-07T15:05:18;7.60;99.90
49765;DHT22;35657;51.204;-4.130;2022-12-07T15:07:45;7.60;99.90
49765;DHT22;35657;51.204;-4.130;2022-12-07T15:10:23;7.60;99.90
49765;DHT22;35657;51.204;-4.130;2022-12-07T15:12:49;7.50;99.90
49765;DHT22;35657;51.204;-4.130;2022-12-07T15:15:15;7.60;99.90
49765;DHT22;35657;51.204;-4.130;2022-12-07T15:17:41;7.50;99.90
49765;DHT22;35657;51.204;-4.130;2022-12-07T15:20:13;7.60;99.90
49765;DHT22;35657;51.204;-4.130;2022-12-07T15:22:41;7.50;99.90
49765;DHT22;35657;51.204;-4.130;2022-12-07T15:25:08;7.50;99.90
49765;DHT22;35657;51.204;-4.130;2022-12-07T15:27:34;7.50;99.90
49765;DHT22;35657;51.204;-4.130;2022-12-07T15:30:00;7.60;99.90
49765;DHT22;35657;51.204;-4.130;2022-12-07T15:32:25;7.50;99.90
49765;DHT22;35657;51.204;-4.130;2022-12-07T15:34:51;7.50;99.90
49765;DHT22;35657;51.204;-4.130;2022-12-07T15:37:17;7.40;99.90
49765;DHT22;35657;51.204;-4.130;2022-12-07T15:39:43;7.40;99.90
49765;DHT22;35657;51.204;-4.130;2022-12-07T15:42:08;7.40;99.90
49765;DHT22;35657;51.204;-4.130;2022-12-07T15:44:34;7.50;99.90
49765;DHT22;35657;51.204;-4.130;2022-12-07T15:47:18;7.50;99.90
49765;DHT22;35657;51.204;-4.130;2022-12-07T15:49:44;7.60;99.90
49765;DHT22;35657;51.204;-4.130;2022-12-07T15:52:10;7.60;99.90
49765;DHT22;35657;51.204;-4.130;2022-12-07T15:54:35;7.50;99.90
49765;DHT22;35657;51.204;-4.130;2022-12-07T15:57:01;7.50;99.90
49765;DHT22;35657;51.204;-4.130;2022-12-07T15:59:28;7.50;99.90
49765;DHT22;35657;51.204;-4.130;2022-12-07T16:01:54;7.40;99.90
49765;DHT22;35657;51.204;-4.130;2022-12-07T16:04:20;7.40;99.90
49765;DHT22;35657;51.204;-4.130;2022-12-07T16:06:46;7.40;99.90
49765;DHT22;35657;51.204;-4.130;2022-12-07T16:09:12;7.30;99.90
49765;DHT22;35657;51.204;-4.130;2022-12-07T16:11:38;7.40;99.90
49765;DHT22;35657;51.204;-4.130;2022-12-07T16:14:03;7.40;99.90
49765;DHT22;35657;51.204;-4.130;2022-12-07T16:16:29;7.40;99.90
49765;DHT22;35657;51.204;-4.130;2022-12-07T16:18:57;7.40;99.90
49765;DHT22;35657;51.204;-4.130;2022-12-07T16:21:23;7.40;99.90
49765;DHT22;35657;51.204;-4.130;2022-12-07T16:23:49;7.40;99.90
49765;DHT22;35657;51.204;-4.130;2022-12-07T16:26:17;7.30;99.90
49765;DHT22;35657;51.204;-4.130;2022-12-07T16:28:43;7.30;99.90
49765;DHT22;35657;51.204;-4.130;2022-12-07T16:31:12;7.30;99.90
49765;DHT22;35657;51.204;-4.130;2022-12-07T16:33:39;7.20;99.90
49765;DHT22;35657;51.204;-4.130;2022-12-07T16:36:07;7.20;99.90
49765;DHT22;35657;51.204;-4.130;2022-12-07T16:38:33;7.20;99.90
49765;DHT22;35657;51.204;-4.130;2022-12-07T16:40:59;7.20;99.90
49765;DHT22;35657;51.204;-4.130;2022-12-07T16:43:25;7.30;99.90
49765;DHT22;35657;51.204;-4.130;2022-12-07T16:45:51;7.30;99.90
49765;DHT22;35657;51.204;-4.130;2022-12-07T16:48:17;7.20;99.90
49765;DHT22;35657;51.204;-4.130;2022-12-07T16:50:44;7.10;99.90
49765;DHT22;35657;51.204;-4.130;2022-12-07T16:53:11;7.10;99.90
49765;DHT22;35657;51.204;-4.130;2022-12-07T16:55:42;7.20;99.90
49765;DHT22;35657;51.204;-4.130;2022-12-07T16:58:09;7.20;99.90
49765;DHT22;35657;51.204;-4.130;2022-12-07T17:00:36;7.10;99.90
49765;DHT22;35657;51.204;-4.130;2022-12-07T17:03:03;7.20;99.90
49765;DHT22;35657;51.204;-4.130;2022-12-07T17:05:29;7.10;99.90
49765;DHT22;35657;51.204;-4.130;2022-12-07T17:07:56;7.10;99.90
49765;DHT22;35657;51.204;-4.130;2022-12-07T17:10:22;7.10;99.90
49765;DHT22;35657;51.204;-4.130;2022-12-07T17:12:48;7.10;99.90
49765;DHT22;35657;51.204;-4.130;2022-12-07T17:15:14;7.10;99.90
49765;DHT22;35657;51.204;-4.130;2022-12-07T17:17:57;7.10;99.90
49765;DHT22;35657;51.204;-4.130;2022-12-07T17:20:26;7.10;99.90
49765;DHT22;35657;51.204;-4.130;2022-12-07T17:22:52;7.20;99.90
49765;DHT22;35657;51.204;-4.130;2022-12-07T17:25:19;7.10;99.90
49765;DHT22;35657;51.204;-4.130;2022-12-07T17:27:46;7.10;99.90
49765;DHT22;35657;51.204;-4.130;2022-12-07T17:30:13;7.10;99.90
49765;DHT22;35657;51.204;-4.130;2022-12-07T17:32:39;7.10;99.90
49765;DHT22;35657;51.204;-4.130;2022-12-07T17:35:05;7.10;99.90
49765;DHT22;35657;51.204;-4.130;2022-12-07T17:37:32;7.10;99.90
49765;DHT22;35657;51.204;-4.130;2022-12-07T17:39:58;7.10;99.90
49765;DHT22;35657;51.204;-4.130;2022-12-07T17:42:24;7.00;99.90
49765;DHT22;35657;51.204;-4.130;2022-12-07T17:45:08;7.10;99.90
49765;DHT22;35657;51.204;-4.130;2022-12-07T17:47:38;7.10;99.90